sensor_id;sensor_type;location;lat;lon;timestamp;temperature;humidity
49731;DHT22;35622;52.008;5.426;2022-07-23T00:01:55;18.10;62.50
49731;DHT22;35622;52.008;5.426;2022-07-23T00:04:20;18.00;63.00
49731;DHT22;35622;52.008;5.426;2022-07-23T00:06:46;18.00;63.20
49731;DHT22;35622;52.008;5.426;2022-07-23T00:09:11;18.10;63.10
49731;DHT22;35622;52.008;5.426;2022-07-23T00:11:37;18.10;63.00
49731;DHT22;35622;52.008;5.426;2022-07-23T00:14:03;18.10;62.90
49731;DHT22;35622;52.008;5.426;2022-07-23T00:16:28;18.10;62.80
49731;DHT22;35622;52.008;5.426;2022-07-23T00:18:54;18.00;62.80
49731;DHT22;35622;52.008;5.426;2022-07-23T00:21:20;17.80;63.40
49731;DHT22;35622;52.008;5.426;2022-07-23T00:23:45;17.70;63.70
49731;DHT22;35622;52.008;5.426;2022-07-23T00:26:11;17.70;63.80
49731;DHT22;35622;52.008;5.426;2022-07-23T00:28:36;17.60;63.80
49731;DHT22;35622;52.008;5.426;2022-07-23T00:31:02;17.60;64.00
49731;DHT22;35622;52.008;5.426;2022-07-23T00:33:27;17.60;63.90
49731;DHT22;35622;52.008;5.426;2022-07-23T00:35:53;17.50;64.00
49731;DHT22;35622;52.008;5.426;2022-07-23T00:38:19;17.60;64.10
49731;DHT22;35622;52.008;5.426;2022-07-23T00:40:44;17.70;64.10
49731;DHT22;35622;52.008;5.426;2022-07-23T00:43:10;17.80;63.80
49731;DHT22;35622;52.008;5.426;2022-07-23T00:45:35;17.90;63.60
49731;DHT22;35622;52.008;5.426;2022-07-23T00:48:01;18.00;63.70
49731;DHT22;35622;52.008;5.426;2022-07-23T00:50:27;18.00;63.70
49731;DHT22;35622;52.008;5.426;2022-07-23T00:52:53;17.90;63.70
49731;DHT22;35622;52.008;5.426;2022-07-23T00:55:20;17.90;63.80
49731;DHT22;35622;52.008;5.426;2022-07-23T00:57:45;18.00;63.70
49731;DHT22;35622;52.008;5.426;2022-07-23T01:00:13;17.90;63.60
49731;DHT22;35622;52.008;5.426;2022-07-23T01:02:39;18.00;63.70
49731;DHT22;35622;52.008;5.426;2022-07-23T01:05:06;18.10;63.40
49731;DHT22;35622;52.008;5.426;2022-07-23T01:07:33;18.20;63.20
49731;DHT22;35622;52.008;5.426;2022-07-23T01:09:59;18.10;63.10
49731;DHT22;35622;52.008;5.426;2022-07-23T01:12:25;18.10;63.20
49731;DHT22;35622;52.008;5.426;2022-07-23T01:14:55;18.10;63.30
49731;DHT22;35622;52.008;5.426;2022-07-23T01:17:20;18.20;63.40
49731;DHT22;35622;52.008;5.426;2022-07-23T01:19:46;18.20;63.00
49731;DHT22;35622;52.008;5.426;2022-07-23T01:22:12;18.20;62.90
49731;DHT22;35622;52.008;5.426;2022-07-23T01:24:38;18.10;62.80
49731;DHT22;35622;52.008;5.426;2022-07-23T01:27:04;18.00;62.90
49731;DHT22;35622;52.008;5.426;2022-07-23T01:29:30;18.00;62.90
49731;DHT22;35622;52.008;5.426;2022-07-23T01:31:56;18.00;63.00
49731;DHT22;35622;52.008;5.426;2022-07-23T01:34:21;18.00;63.00
49731;DHT22;35622;52.008;5.426;2022-07-23T01:36:47;17.90;63.10
49731;DHT22;35622;52.008;5.426;2022-07-23T01:39:12;17.80;63.30
49731;DHT22;35622;52.008;5.426;2022-07-23T01:41:38;17.80;63.30
49731;DHT22;35622;52.008;5.426;2022-07-23T01:44:04;17.80;63.20
49731;DHT22;35622;52.008;5.426;2022-07-23T01:46:29;17.70;63.10
49731;DHT22;35622;52.008;5.426;2022-07-23T01:48:55;17.70;63.10
49731;DHT22;35622;52.008;5.426;2022-07-23T01:51:20;17.70;63.20
49731;DHT22;35622;52.008;5.426;2022-07-23T01:53:46;17.60;63.00
49731;DHT22;35622;52.008;5.426;2022-07-23T01:56:11;17.60;63.00
49731;DHT22;35622;52.008;5.426;2022-07-23T01:58:37;17.50;62.80
49731;DHT22;35622;52.008;5.426;2022-07-23T02:01:03;17.40;63.10
49731;DHT22;35622;52.008;5.426;2022-07-23T02:03:29;17.40;63.10
49731;DHT22;35622;52.008;5.426;2022-07-23T02:05:54;17.30;63.20
49731;DHT22;35622;52.008;5.426;2022-07-23T02:08:20;17.20;63.40
49731;DHT22;35622;52.008;5.426;2022-07-23T02:10:45;17.10;63.60
49731;DHT22;35622;52.008;5.426;2022-07-23T02:13:11;17.10;63.70
49731;DHT22;35622;52.008;5.426;2022-07-23T02:15:37;17.10;63.60
49731;DHT22;35622;52.008;5.426;2022-07-23T02:18:03;17.00;63.70
49731;DHT22;35622;52.008;5.426;2022-07-23T02:20:28;17.00;63.70
49731;DHT22;35622;52.008;5.426;2022-07-23T02:22:54;17.00;63.90
49731;DHT22;35622;52.008;5.426;2022-07-23T02:25:19;17.00;63.80
49731;DHT22;35622;52.008;5.426;2022-07-23T02:27:45;17.00;63.60
49731;DHT22;35622;52.008;5.426;2022-07-23T02:30:11;16.80;63.50
49731;DHT22;35622;52.008;5.426;2022-07-23T02:32:36;16.80;63.50
49731;DHT22;35622;52.008;5.426;2022-07-23T02:35:03;16.70;63.70
49731;DHT22;35622;52.008;5.426;2022-07-23T02:37:29;16.80;63.60
49731;DHT22;35622;52.008;5.426;2022-07-23T02:39:55;16.80;63.20
49731;DHT22;35622;52.008;5.426;2022-07-23T02:42:20;16.80;63.40
49731;DHT22;35622;52.008;5.426;2022-07-23T02:44:46;16.70;63.30
49731;DHT22;35622;52.008;5.426;2022-07-23T02:47:11;16.60;63.30
49731;DHT22;35622;52.008;5.426;2022-07-23T02:49:37;16.70;63.50
49731;DHT22;35622;52.008;5.426;2022-07-23T02:52:03;16.60;63.40
49731;DHT22;35622;52.008;5.426;2022-07-23T02:54:29;16.50;63.60
49731;DHT22;35622;52.008;5.426;2022-07-23T02:56:54;16.50;63.60
49731;DHT22;35622;52.008;5.426;2022-07-23T02:59:20;16.40;63.70
49731;DHT22;35622;52.008;5.426;2022-07-23T03:01:45;16.40;63.70
49731;DHT22;35622;52.008;5.426;2022-07-23T03:04:11;16.40;63.70
49731;DHT22;35622;52.008;5.426;2022-07-23T03:06:37;16.30;63.60
49731;DHT22;35622;52.008;5.426;2022-07-23T03:09:03;16.30;63.70
49731;DHT22;35622;52.008;5.426;2022-07-23T03:11:29;16.30;64.00
49731;DHT22;35622;52.008;5.426;2022-07-23T03:13:54;16.20;64.00
49731;DHT22;35622;52.008;5.426;2022-07-23T03:16:20;16.20;64.00
49731;DHT22;35622;52.008;5.426;2022-07-23T03:18:46;16.30;63.70
49731;DHT22;35622;52.008;5.426;2022-07-23T03:21:11;16.20;63.70
49731;DHT22;35622;52.008;5.426;2022-07-23T03:23:37;16.00;64.00
49731;DHT22;35622;52.008;5.426;2022-07-23T03:26:02;15.90;64.00
49731;DHT22;35622;52.008;5.426;2022-07-23T03:28:28;15.80;64.30
49731;DHT22;35622;52.008;5.426;2022-07-23T03:30:53;15.80;64.60
49731;DHT22;35622;52.008;5.426;2022-07-23T03:33:20;15.80;64.70
49731;DHT22;35622;52.008;5.426;2022-07-23T03:35:46;15.80;64.60
49731;DHT22;35622;52.008;5.426;2022-07-23T03:38:13;15.70;64.60
49731;DHT22;35622;52.008;5.426;2022-07-23T03:40:38;15.80;64.50
49731;DHT22;35622;52.008;5.426;2022-07-23T03:43:04;15.70;64.50
49731;DHT22;35622;52.008;5.426;2022-07-23T03:45:30;15.60;64.70
49731;DHT22;35622;52.008;5.426;2022-07-23T03:47:56;15.70;64.70
49731;DHT22;35622;52.008;5.426;2022-07-23T03:50:21;15.70;64.30
49731;DHT22;35622;52.008;5.426;2022-07-23T03:52:47;15.70;64.60
49731;DHT22;35622;52.008;5.426;2022-07-23T03:55:12;15.70;64.50
49731;DHT22;35622;52.008;5.426;2022-07-23T03:57:38;15.60;64.30
49731;DHT22;35622;52.008;5.426;2022-07-23T04:00:05;15.70;64.60
49731;DHT22;35622;52.008;5.426;2022-07-23T04:02:32;15.60;64.20
49731;DHT22;35622;52.008;5.426;2022-07-23T04:04:58;15.60;64.30
49731;DHT22;35622;52.008;5.426;2022-07-23T04:07:24;15.60;64.30
49731;DHT22;35622;52.008;5.426;2022-07-23T04:09:50;15.70;64.50
49731;DHT22;35622;52.008;5.426;2022-07-23T04:12:15;15.70;64.30
49731;DHT22;35622;52.008;5.426;2022-07-23T04:14:41;15.70;64.10
49731;DHT22;35622;52.008;5.426;2022-07-23T04:17:06;15.70;64.10
49731;DHT22;35622;52.008;5.426;2022-07-23T04:19:32;15.60;64.30
49731;DHT22;35622;52.008;5.426;2022-07-23T04:21:57;15.60;64.50
49731;DHT22;35622;52.008;5.426;2022-07-23T04:24:23;15.50;64.40
49731;DHT22;35622;52.008;5.426;2022-07-23T04:26:49;15.60;65.00
49731;DHT22;35622;52.008;5.426;2022-07-23T04:29:14;15.70;64.30
49731;DHT22;35622;52.008;5.426;2022-07-23T04:31:40;15.80;64.40
49731;DHT22;35622;52.008;5.426;2022-07-23T04:34:05;15.70;64.30
49731;DHT22;35622;52.008;5.426;2022-07-23T04:36:31;15.70;64.30
49731;DHT22;35622;52.008;5.426;2022-07-23T04:38:56;15.80;64.50
49731;DHT22;35622;52.008;5.426;2022-07-23T04:41:22;15.70;64.10
49731;DHT22;35622;52.008;5.426;2022-07-23T04:43:47;15.70;64.10
49731;DHT22;35622;52.008;5.426;2022-07-23T04:46:13;15.80;64.20
49731;DHT22;35622;52.008;5.426;2022-07-23T04:48:39;15.90;64.10
49731;DHT22;35622;52.008;5.426;2022-07-23T04:51:05;15.90;63.90
49731;DHT22;35622;52.008;5.426;2022-07-23T04:53:30;16.00;63.90
49731;DHT22;35622;52.008;5.426;2022-07-23T04:55:57;16.10;63.80
49731;DHT22;35622;52.008;5.426;2022-07-23T04:58:22;16.30;63.70
49731;DHT22;35622;52.008;5.426;2022-07-23T05:00:48;16.40;63.00
49731;DHT22;35622;52.008;5.426;2022-07-23T05:03:14;16.40;63.00
49731;DHT22;35622;52.008;5.426;2022-07-23T05:05:40;16.50;62.90
49731;DHT22;35622;52.008;5.426;2022-07-23T05:08:05;16.70;62.80
49731;DHT22;35622;52.008;5.426;2022-07-23T05:10:31;16.80;62.70
49731;DHT22;35622;52.008;5.426;2022-07-23T05:12:56;16.80;62.60
49731;DHT22;35622;52.008;5.426;2022-07-23T05:15:22;16.80;62.70
49731;DHT22;35622;52.008;5.426;2022-07-23T05:17:48;16.90;62.80
49731;DHT22;35622;52.008;5.426;2022-07-23T05:20:13;17.10;62.90
49731;DHT22;35622;52.008;5.426;2022-07-23T05:22:39;17.30;62.80
49731;DHT22;35622;52.008;5.426;2022-07-23T05:25:06;17.60;62.70
49731;DHT22;35622;52.008;5.426;2022-07-23T05:27:33;17.80;62.50
49731;DHT22;35622;52.008;5.426;2022-07-23T05:29:58;18.00;61.80
49731;DHT22;35622;52.008;5.426;2022-07-23T05:32:24;18.10;61.50
49731;DHT22;35622;52.008;5.426;2022-07-23T05:34:50;18.30;61.70
49731;DHT22;35622;52.008;5.426;2022-07-23T05:37:16;18.80;62.10
49731;DHT22;35622;52.008;5.426;2022-07-23T05:39:41;19.40;60.40
49731;DHT22;35622;52.008;5.426;2022-07-23T05:42:07;19.80;59.30
49731;DHT22;35622;52.008;5.426;2022-07-23T05:44:33;20.00;58.30
49731;DHT22;35622;52.008;5.426;2022-07-23T05:46:58;20.20;57.70
49731;DHT22;35622;52.008;5.426;2022-07-23T05:49:24;20.20;57.60
49731;DHT22;35622;52.008;5.426;2022-07-23T05:51:49;20.30;57.20
49731;DHT22;35622;52.008;5.426;2022-07-23T05:54:15;20.60;57.20
49731;DHT22;35622;52.008;5.426;2022-07-23T05:56:40;20.80;56.60
49731;DHT22;35622;52.008;5.426;2022-07-23T05:59:06;21.00;57.10
49731;DHT22;35622;52.008;5.426;2022-07-23T06:01:31;21.10;55.60
49731;DHT22;35622;52.008;5.426;2022-07-23T06:03:57;21.10;55.40
49731;DHT22;35622;52.008;5.426;2022-07-23T06:06:23;21.30;55.30
49731;DHT22;35622;52.008;5.426;2022-07-23T06:08:48;21.60;55.50
49731;DHT22;35622;52.008;5.426;2022-07-23T06:11:14;22.00;55.00
49731;DHT22;35622;52.008;5.426;2022-07-23T06:13:39;22.60;54.20
49731;DHT22;35622;52.008;5.426;2022-07-23T06:16:05;24.20;52.80
49731;DHT22;35622;52.008;5.426;2022-07-23T06:18:30;26.70;47.20
49731;DHT22;35622;52.008;5.426;2022-07-23T06:20:56;29.40;41.80
49731;DHT22;35622;52.008;5.426;2022-07-23T06:23:22;31.80;36.70
49731;DHT22;35622;52.008;5.426;2022-07-23T06:25:47;33.90;33.50
49731;DHT22;35622;52.008;5.426;2022-07-23T06:28:13;35.60;29.80
49731;DHT22;35622;52.008;5.426;2022-07-23T06:30:38;37.10;28.10
49731;DHT22;35622;52.008;5.426;2022-07-23T06:33:04;38.40;26.10
49731;DHT22;35622;52.008;5.426;2022-07-23T06:35:29;39.60;24.70
49731;DHT22;35622;52.008;5.426;2022-07-23T06:37:55;40.50;23.30
49731;DHT22;35622;52.008;5.426;2022-07-23T06:40:20;41.40;22.90
49731;DHT22;35622;52.008;5.426;2022-07-23T06:42:46;42.20;22.20
49731;DHT22;35622;52.008;5.426;2022-07-23T06:45:12;42.80;21.10
49731;DHT22;35622;52.008;5.426;2022-07-23T06:47:37;43.50;20.70
49731;DHT22;35622;52.008;5.426;2022-07-23T06:50:04;44.10;20.10
49731;DHT22;35622;52.008;5.426;2022-07-23T06:52:29;44.60;19.50
49731;DHT22;35622;52.008;5.426;2022-07-23T06:54:55;45.10;19.30
49731;DHT22;35622;52.008;5.426;2022-07-23T06:57:20;45.60;18.90
49731;DHT22;35622;52.008;5.426;2022-07-23T06:59:46;46.10;18.30
49731;DHT22;35622;52.008;5.426;2022-07-23T07:02:11;46.60;17.70
49731;DHT22;35622;52.008;5.426;2022-07-23T07:04:37;47.00;17.70
49731;DHT22;35622;52.008;5.426;2022-07-23T07:07:03;47.40;16.20
49731;DHT22;35622;52.008;5.426;2022-07-23T07:09:28;47.70;15.60
49731;DHT22;35622;52.008;5.426;2022-07-23T07:11:54;48.20;16.00
49731;DHT22;35622;52.008;5.426;2022-07-23T07:14:21;48.70;15.40
49731;DHT22;35622;52.008;5.426;2022-07-23T07:16:46;49.20;15.10
49731;DHT22;35622;52.008;5.426;2022-07-23T07:19:12;49.50;15.10
49731;DHT22;35622;52.008;5.426;2022-07-23T07:21:37;49.90;14.30
49731;DHT22;35622;52.008;5.426;2022-07-23T07:24:03;50.10;13.80
49731;DHT22;35622;52.008;5.426;2022-07-23T07:26:29;50.40;13.30
49731;DHT22;35622;52.008;5.426;2022-07-23T07:28:56;50.10;14.10
49731;DHT22;35622;52.008;5.426;2022-07-23T07:31:22;50.40;13.60
49731;DHT22;35622;52.008;5.426;2022-07-23T07:33:47;50.20;13.30
49731;DHT22;35622;52.008;5.426;2022-07-23T07:36:13;49.50;13.10
49731;DHT22;35622;52.008;5.426;2022-07-23T07:38:38;49.80;13.70
49731;DHT22;35622;52.008;5.426;2022-07-23T07:41:04;50.50;12.90
49731;DHT22;35622;52.008;5.426;2022-07-23T07:43:29;49.40;13.50
49731;DHT22;35622;52.008;5.426;2022-07-23T07:45:55;47.10;14.20
49731;DHT22;35622;52.008;5.426;2022-07-23T07:48:20;45.30;15.50
49731;DHT22;35622;52.008;5.426;2022-07-23T07:50:46;44.30;16.70
49731;DHT22;35622;52.008;5.426;2022-07-23T07:53:12;45.00;16.30
49731;DHT22;35622;52.008;5.426;2022-07-23T07:55:37;45.90;15.30
49731;DHT22;35622;52.008;5.426;2022-07-23T07:58:03;46.30;15.60
49731;DHT22;35622;52.008;5.426;2022-07-23T08:00:28;47.50;15.10
49731;DHT22;35622;52.008;5.426;2022-07-23T08:02:55;48.30;13.90
49731;DHT22;35622;52.008;5.426;2022-07-23T08:05:25;48.40;14.20
49731;DHT22;35622;52.008;5.426;2022-07-23T08:07:50;49.20;14.10
49731;DHT22;35622;52.008;5.426;2022-07-23T08:10:17;50.10;13.20
49731;DHT22;35622;52.008;5.426;2022-07-23T08:12:49;50.90;12.90
49731;DHT22;35622;52.008;5.426;2022-07-23T08:15:16;51.10;12.40
49731;DHT22;35622;52.008;5.426;2022-07-23T08:17:43;51.70;12.70
49731;DHT22;35622;52.008;5.426;2022-07-23T08:20:10;52.00;12.20
49731;DHT22;35622;52.008;5.426;2022-07-23T08:25:24;52.80;11.50
49731;DHT22;35622;52.008;5.426;2022-07-23T08:27:50;53.10;11.10
49731;DHT22;35622;52.008;5.426;2022-07-23T08:30:16;53.30;11.50
49731;DHT22;35622;52.008;5.426;2022-07-23T08:32:53;53.20;11.40
49731;DHT22;35622;52.008;5.426;2022-07-23T08:35:29;53.50;11.10
49731;DHT22;35622;52.008;5.426;2022-07-23T08:37:55;53.80;10.60
49731;DHT22;35622;52.008;5.426;2022-07-23T08:40:22;53.40;10.60
49731;DHT22;35622;52.008;5.426;2022-07-23T08:42:49;53.80;10.70
49731;DHT22;35622;52.008;5.426;2022-07-23T08:45:20;54.00;10.40
49731;DHT22;35622;52.008;5.426;2022-07-23T08:47:57;54.40;11.20
49731;DHT22;35622;52.008;5.426;2022-07-23T08:50:24;54.20;10.60
49731;DHT22;35622;52.008;5.426;2022-07-23T08:52:51;54.70;10.50
49731;DHT22;35622;52.008;5.426;2022-07-23T08:55:19;55.30;10.20
49731;DHT22;35622;52.008;5.426;2022-07-23T08:57:48;55.60;9.60
49731;DHT22;35622;52.008;5.426;2022-07-23T09:00:14;55.50;9.50
49731;DHT22;35622;52.008;5.426;2022-07-23T09:02:41;55.30;9.70
49731;DHT22;35622;52.008;5.426;2022-07-23T09:05:07;54.30;9.90
49731;DHT22;35622;52.008;5.426;2022-07-23T09:07:33;54.00;9.90
49731;DHT22;35622;52.008;5.426;2022-07-23T09:10:10;54.20;10.50
49731;DHT22;35622;52.008;5.426;2022-07-23T09:12:36;54.40;10.20
49731;DHT22;35622;52.008;5.426;2022-07-23T09:15:04;54.00;9.60
49731;DHT22;35622;52.008;5.426;2022-07-23T09:17:40;53.10;10.40
49731;DHT22;35622;52.008;5.426;2022-07-23T09:20:11;53.80;10.10
49731;DHT22;35622;52.008;5.426;2022-07-23T09:22:37;54.50;10.60
49731;DHT22;35622;52.008;5.426;2022-07-23T09:27:56;55.30;9.80
49731;DHT22;35622;52.008;5.426;2022-07-23T09:30:24;55.50;9.50
49731;DHT22;35622;52.008;5.426;2022-07-23T09:33:10;55.80;9.80
49731;DHT22;35622;52.008;5.426;2022-07-23T09:35:46;56.10;8.90
49731;DHT22;35622;52.008;5.426;2022-07-23T09:38:12;55.80;9.40
49731;DHT22;35622;52.008;5.426;2022-07-23T09:40:38;55.30;9.60
49731;DHT22;35622;52.008;5.426;2022-07-23T09:43:04;55.40;9.30
49731;DHT22;35622;52.008;5.426;2022-07-23T09:45:29;55.10;9.40
49731;DHT22;35622;52.008;5.426;2022-07-23T09:48:15;53.80;9.90
49731;DHT22;35622;52.008;5.426;2022-07-23T09:50:43;53.70;10.20
49731;DHT22;35622;52.008;5.426;2022-07-23T09:53:09;54.30;10.00
49731;DHT22;35622;52.008;5.426;2022-07-23T09:55:36;54.80;9.90
49731;DHT22;35622;52.008;5.426;2022-07-23T09:58:06;55.10;9.60
49731;DHT22;35622;52.008;5.426;2022-07-23T10:00:38;55.30;9.50
49731;DHT22;35622;52.008;5.426;2022-07-23T10:03:06;55.10;9.10
49731;DHT22;35622;52.008;5.426;2022-07-23T10:05:33;53.10;10.00
49731;DHT22;35622;52.008;5.426;2022-07-23T10:08:01;50.70;11.50
49731;DHT22;35622;52.008;5.426;2022-07-23T10:10:27;50.50;11.90
49731;DHT22;35622;52.008;5.426;2022-07-23T10:12:55;51.50;12.00
49731;DHT22;35622;52.008;5.426;2022-07-23T10:15:27;53.10;10.90
49731;DHT22;35622;52.008;5.426;2022-07-23T10:17:53;54.00;10.10
49731;DHT22;35622;52.008;5.426;2022-07-23T10:20:18;54.70;10.10
49731;DHT22;35622;52.008;5.426;2022-07-23T10:23:02;55.40;10.00
49731;DHT22;35622;52.008;5.426;2022-07-23T10:25:41;56.20;9.80
49731;DHT22;35622;52.008;5.426;2022-07-23T10:33:54;56.90;9.00
49731;DHT22;35622;52.008;5.426;2022-07-23T10:36:51;56.80;9.10
49731;DHT22;35622;52.008;5.426;2022-07-23T10:39:34;57.20;8.90
49731;DHT22;35622;52.008;5.426;2022-07-23T10:42:14;57.60;8.70
49731;DHT22;35622;52.008;5.426;2022-07-23T10:44:42;58.10;8.50
49731;DHT22;35622;52.008;5.426;2022-07-23T10:47:10;58.40;8.40
49731;DHT22;35622;52.008;5.426;2022-07-23T10:49:48;58.30;8.20
49731;DHT22;35622;52.008;5.426;2022-07-23T10:57:25;58.50;7.70
49731;DHT22;35622;52.008;5.426;2022-07-23T11:02:36;57.30;7.90
49731;DHT22;35622;52.008;5.426;2022-07-23T11:05:13;57.00;8.10
49731;DHT22;35622;52.008;5.426;2022-07-23T11:26:49;55.00;8.70
49731;DHT22;35622;52.008;5.426;2022-07-23T11:37:06;55.50;9.80
49731;DHT22;35622;52.008;5.426;2022-07-23T11:39:33;55.40;9.30
49731;DHT22;35622;52.008;5.426;2022-07-23T11:42:01;55.70;9.10
49731;DHT22;35622;52.008;5.426;2022-07-23T11:44:36;55.70;8.60
49731;DHT22;35622;52.008;5.426;2022-07-23T11:47:04;54.70;9.30
49731;DHT22;35622;52.008;5.426;2022-07-23T11:49:30;55.10;9.60
49731;DHT22;35622;52.008;5.426;2022-07-23T11:52:06;55.60;9.00
49731;DHT22;35622;52.008;5.426;2022-07-23T11:54:33;55.90;8.80
49731;DHT22;35622;52.008;5.426;2022-07-23T11:57:00;55.30;8.50
49731;DHT22;35622;52.008;5.426;2022-07-23T11:59:28;54.80;9.10
49731;DHT22;35622;52.008;5.426;2022-07-23T12:02:00;54.60;9.40
49731;DHT22;35622;52.008;5.426;2022-07-23T12:04:47;54.40;9.60
49731;DHT22;35622;52.008;5.426;2022-07-23T12:07:34;54.40;9.90
49731;DHT22;35622;52.008;5.426;2022-07-23T12:15:42;54.70;9.50
49731;DHT22;35622;52.008;5.426;2022-07-23T12:18:10;55.00;9.40
49731;DHT22;35622;52.008;5.426;2022-07-23T12:20:42;55.20;9.50
49731;DHT22;35622;52.008;5.426;2022-07-23T12:23:11;55.30;9.00
49731;DHT22;35622;52.008;5.426;2022-07-23T12:25:41;55.20;9.20
49731;DHT22;35622;52.008;5.426;2022-07-23T12:28:13;55.00;9.10
49731;DHT22;35622;52.008;5.426;2022-07-23T12:30:47;54.60;9.70
49731;DHT22;35622;52.008;5.426;2022-07-23T12:33:27;53.90;9.50
49731;DHT22;35622;52.008;5.426;2022-07-23T12:35:55;52.60;9.20
49731;DHT22;35622;52.008;5.426;2022-07-23T12:38:22;50.90;10.40
49731;DHT22;35622;52.008;5.426;2022-07-23T12:40:54;49.00;11.50
49731;DHT22;35622;52.008;5.426;2022-07-23T12:48:40;44.40;15.00
49731;DHT22;35622;52.008;5.426;2022-07-23T12:51:16;43.00;15.80
49731;DHT22;35622;52.008;5.426;2022-07-23T12:53:49;41.80;16.80
49731;DHT22;35622;52.008;5.426;2022-07-23T12:56:18;40.90;17.90
49731;DHT22;35622;52.008;5.426;2022-07-23T13:04:02;38.70;19.80
49731;DHT22;35622;52.008;5.426;2022-07-23T13:06:33;38.20;20.50
49731;DHT22;35622;52.008;5.426;2022-07-23T13:08:59;37.90;20.10
49731;DHT22;35622;52.008;5.426;2022-07-23T13:11:25;37.50;21.30
49731;DHT22;35622;52.008;5.426;2022-07-23T13:13:51;37.20;21.40
49731;DHT22;35622;52.008;5.426;2022-07-23T13:16:17;37.00;21.40
49731;DHT22;35622;52.008;5.426;2022-07-23T13:18:42;36.60;22.10
49731;DHT22;35622;52.008;5.426;2022-07-23T13:21:08;36.30;22.00
49731;DHT22;35622;52.008;5.426;2022-07-23T13:23:34;35.90;21.70
49731;DHT22;35622;52.008;5.426;2022-07-23T13:26:00;35.60;22.30
49731;DHT22;35622;52.008;5.426;2022-07-23T13:28:26;35.10;23.50
49731;DHT22;35622;52.008;5.426;2022-07-23T13:30:52;34.90;23.10
49731;DHT22;35622;52.008;5.426;2022-07-23T13:33:20;34.90;24.20
49731;DHT22;35622;52.008;5.426;2022-07-23T13:35:46;34.90;24.10
49731;DHT22;35622;52.008;5.426;2022-07-23T13:38:12;34.80;24.50
49731;DHT22;35622;52.008;5.426;2022-07-23T13:40:40;34.80;23.10
49731;DHT22;35622;52.008;5.426;2022-07-23T13:43:08;34.80;23.60
49731;DHT22;35622;52.008;5.426;2022-07-23T13:45:34;34.60;24.50
49731;DHT22;35622;52.008;5.426;2022-07-23T13:48:00;34.60;24.40
49731;DHT22;35622;52.008;5.426;2022-07-23T13:50:26;34.50;24.50
49731;DHT22;35622;52.008;5.426;2022-07-23T13:52:52;34.20;25.10
49731;DHT22;35622;52.008;5.426;2022-07-23T13:55:17;34.00;25.90
49731;DHT22;35622;52.008;5.426;2022-07-23T13:57:43;33.90;25.70
49731;DHT22;35622;52.008;5.426;2022-07-23T14:00:12;33.70;24.90
49731;DHT22;35622;52.008;5.426;2022-07-23T14:02:39;33.60;27.10
49731;DHT22;35622;52.008;5.426;2022-07-23T14:05:06;33.70;26.50
49731;DHT22;35622;52.008;5.426;2022-07-23T14:07:33;33.80;25.70
49731;DHT22;35622;52.008;5.426;2022-07-23T14:09:58;33.80;27.10
49731;DHT22;35622;52.008;5.426;2022-07-23T14:12:24;33.80;26.90
49731;DHT22;35622;52.008;5.426;2022-07-23T14:14:50;33.70;27.30
49731;DHT22;35622;52.008;5.426;2022-07-23T14:17:15;33.70;26.40
49731;DHT22;35622;52.008;5.426;2022-07-23T14:19:41;33.60;26.70
49731;DHT22;35622;52.008;5.426;2022-07-23T14:22:07;33.40;28.10
49731;DHT22;35622;52.008;5.426;2022-07-23T14:24:33;33.40;27.30
49731;DHT22;35622;52.008;5.426;2022-07-23T14:27:00;33.50;25.90
49731;DHT22;35622;52.008;5.426;2022-07-23T14:29:26;33.40;27.20
49731;DHT22;35622;52.008;5.426;2022-07-23T14:31:51;33.40;26.60
49731;DHT22;35622;52.008;5.426;2022-07-23T14:34:17;33.50;26.30
49731;DHT22;35622;52.008;5.426;2022-07-23T14:36:43;33.40;25.40
49731;DHT22;35622;52.008;5.426;2022-07-23T14:39:08;33.40;26.10
49731;DHT22;35622;52.008;5.426;2022-07-23T14:41:35;33.30;26.50
49731;DHT22;35622;52.008;5.426;2022-07-23T14:44:01;33.30;26.60
49731;DHT22;35622;52.008;5.426;2022-07-23T14:46:28;33.20;26.50
49731;DHT22;35622;52.008;5.426;2022-07-23T14:48:54;33.20;28.60
49731;DHT22;35622;52.008;5.426;2022-07-23T14:51:19;33.10;27.70
49731;DHT22;35622;52.008;5.426;2022-07-23T14:53:45;33.10;26.30
49731;DHT22;35622;52.008;5.426;2022-07-23T14:56:10;32.90;27.30
49731;DHT22;35622;52.008;5.426;2022-07-23T14:58:36;32.80;28.40
49731;DHT22;35622;52.008;5.426;2022-07-23T15:01:01;32.70;28.10
49731;DHT22;35622;52.008;5.426;2022-07-23T15:03:27;32.50;28.50
49731;DHT22;35622;52.008;5.426;2022-07-23T15:05:52;32.60;28.20
49731;DHT22;35622;52.008;5.426;2022-07-23T15:08:18;32.60;27.30
49731;DHT22;35622;52.008;5.426;2022-07-23T15:10:44;32.60;29.80
49731;DHT22;35622;52.008;5.426;2022-07-23T15:13:09;32.60;28.30
49731;DHT22;35622;52.008;5.426;2022-07-23T15:15:35;32.50;29.50
49731;DHT22;35622;52.008;5.426;2022-07-23T15:18:00;32.40;28.20
49731;DHT22;35622;52.008;5.426;2022-07-23T15:20:26;32.30;28.00
49731;DHT22;35622;52.008;5.426;2022-07-23T15:22:52;32.40;28.10
49731;DHT22;35622;52.008;5.426;2022-07-23T15:25:17;32.30;27.60
49731;DHT22;35622;52.008;5.426;2022-07-23T15:27:43;32.40;29.70
49731;DHT22;35622;52.008;5.426;2022-07-23T15:30:09;32.40;31.20
49731;DHT22;35622;52.008;5.426;2022-07-23T15:32:34;32.40;28.70
49731;DHT22;35622;52.008;5.426;2022-07-23T15:35:00;32.40;28.20
49731;DHT22;35622;52.008;5.426;2022-07-23T15:37:26;32.30;27.30
49731;DHT22;35622;52.008;5.426;2022-07-23T15:39:51;32.30;29.30
49731;DHT22;35622;52.008;5.426;2022-07-23T15:42:17;32.40;29.70
49731;DHT22;35622;52.008;5.426;2022-07-23T15:44:43;32.30;29.90
49731;DHT22;35622;52.008;5.426;2022-07-23T15:47:14;32.40;31.50
49731;DHT22;35622;52.008;5.426;2022-07-23T15:49:40;32.40;31.20
49731;DHT22;35622;52.008;5.426;2022-07-23T15:52:06;32.40;29.30
49731;DHT22;35622;52.008;5.426;2022-07-23T15:54:31;32.40;29.30
49731;DHT22;35622;52.008;5.426;2022-07-23T15:56:57;32.40;26.60
49731;DHT22;35622;52.008;5.426;2022-07-23T15:59:23;32.20;27.10
49731;DHT22;35622;52.008;5.426;2022-07-23T16:01:49;32.20;28.00
49731;DHT22;35622;52.008;5.426;2022-07-23T16:04:14;32.10;29.00
49731;DHT22;35622;52.008;5.426;2022-07-23T16:06:40;32.10;30.30
49731;DHT22;35622;52.008;5.426;2022-07-23T16:09:07;32.00;30.80
49731;DHT22;35622;52.008;5.426;2022-07-23T16:11:33;31.80;29.70
49731;DHT22;35622;52.008;5.426;2022-07-23T16:13:58;31.80;29.80
49731;DHT22;35622;52.008;5.426;2022-07-23T16:16:24;31.70;30.20
49731;DHT22;35622;52.008;5.426;2022-07-23T16:18:52;31.70;31.20
49731;DHT22;35622;52.008;5.426;2022-07-23T16:21:17;31.70;28.40
49731;DHT22;35622;52.008;5.426;2022-07-23T16:23:43;31.60;30.20
49731;DHT22;35622;52.008;5.426;2022-07-23T16:26:09;31.60;30.30
49731;DHT22;35622;52.008;5.426;2022-07-23T16:28:35;31.60;29.30
49731;DHT22;35622;52.008;5.426;2022-07-23T16:31:01;31.50;31.10
49731;DHT22;35622;52.008;5.426;2022-07-23T16:33:27;31.50;31.80